sensor_id;sensor_type;location;lat;lon;timestamp;P1;durP1;ratioP1;P2;durP2;ratioP2
5981;SDS011;3018;48.730;9.336;2023-09-19T00:02:00;1.85;;;0.70;;
5981;SDS011;3018;48.730;9.336;2023-09-19T00:04:28;0.80;;;0.75;;
5981;SDS011;3018;48.730;9.336;2023-09-19T00:06:57;2.85;;;0.70;;
5981;SDS011;3018;48.730;9.336;2023-09-19T00:09:23;2.15;;;0.70;;
5981;SDS011;3018;48.730;9.336;2023-09-19T00:11:52;1.80;;;0.80;;
5981;SDS011;3018;48.730;9.336;2023-09-19T00:14:18;0.60;;;0.60;;
5981;SDS011;3018;48.730;9.336;2023-09-19T00:16:45;1.02;;;0.60;;
5981;SDS011;3018;48.730;9.336;2023-09-19T00:19:12;1.13;;;0.60;;
5981;SDS011;3018;48.730;9.336;2023-09-19T00:21:40;3.15;;;0.52;;
5981;SDS011;3018;48.730;9.336;2023-09-19T00:24:07;0.85;;;0.60;;
5981;SDS011;3018;48.730;9.336;2023-09-19T00:26:34;0.65;;;0.60;;
5981;SDS011;3018;48.730;9.336;2023-09-19T00:29:00;0.70;;;0.70;;
5981;SDS011;3018;48.730;9.336;2023-09-19T00:31:30;0.50;;;0.50;;
5981;SDS011;3018;48.730;9.336;2023-09-19T00:33:57;0.60;;;0.60;;
5981;SDS011;3018;48.730;9.336;2023-09-19T00:36:27;0.65;;;0.65;;
5981;SDS011;3018;48.730;9.336;2023-09-19T00:38:55;1.98;;;0.77;;
5981;SDS011;3018;48.730;9.336;2023-09-19T00:41:21;0.88;;;0.88;;
5981;SDS011;3018;48.730;9.336;2023-09-19T00:43:49;2.08;;;0.57;;
5981;SDS011;3018;48.730;9.336;2023-09-19T00:46:16;2.83;;;0.50;;
5981;SDS011;3018;48.730;9.336;2023-09-19T00:48:42;4.65;;;0.60;;
5981;SDS011;3018;48.730;9.336;2023-09-19T00:51:09;2.30;;;0.70;;
5981;SDS011;3018;48.730;9.336;2023-09-19T00:53:36;1.65;;;0.80;;
5981;SDS011;3018;48.730;9.336;2023-09-19T00:56:04;2.33;;;0.77;;
5981;SDS011;3018;48.730;9.336;2023-09-19T00:58:32;0.60;;;0.60;;
5981;SDS011;3018;48.730;9.336;2023-09-19T01:01:00;0.50;;;0.50;;
5981;SDS011;3018;48.730;9.336;2023-09-19T01:03:28;1.10;;;0.80;;
5981;SDS011;3018;48.730;9.336;2023-09-19T01:05:54;0.88;;;0.75;;
5981;SDS011;3018;48.730;9.336;2023-09-19T01:08:20;0.63;;;0.63;;
5981;SDS011;3018;48.730;9.336;2023-09-19T01:10:49;1.73;;;0.57;;
5981;SDS011;3018;48.730;9.336;2023-09-19T01:16:31;2.38;;;0.73;;
5981;SDS011;3018;48.730;9.336;2023-09-19T01:19:02;1.70;;;0.60;;
5981;SDS011;3018;48.730;9.336;2023-09-19T01:21:34;0.75;;;0.55;;
5981;SDS011;3018;48.730;9.336;2023-09-19T01:24:16;2.83;;;0.73;;
5981;SDS011;3018;48.730;9.336;2023-09-19T01:26:58;0.60;;;0.60;;
5981;SDS011;3018;48.730;9.336;2023-09-19T01:29:33;0.60;;;0.60;;
5981;SDS011;3018;48.730;9.336;2023-09-19T01:32:03;0.40;;;0.40;;
5981;SDS011;3018;48.730;9.336;2023-09-19T01:34:42;2.92;;;0.60;;
5981;SDS011;3018;48.730;9.336;2023-09-19T01:37:10;0.40;;;0.40;;
5981;SDS011;3018;48.730;9.336;2023-09-19T01:39:36;0.70;;;0.70;;
5981;SDS011;3018;48.730;9.336;2023-09-19T01:42:04;0.60;;;0.60;;
5981;SDS011;3018;48.730;9.336;2023-09-19T01:44:35;0.40;;;0.40;;
5981;SDS011;3018;48.730;9.336;2023-09-19T01:47:08;0.52;;;0.40;;
5981;SDS011;3018;48.730;9.336;2023-09-19T01:49:44;1.33;;;0.50;;
5981;SDS011;3018;48.730;9.336;2023-09-19T01:52:12;0.80;;;0.45;;
5981;SDS011;3018;48.730;9.336;2023-09-19T01:54:41;2.30;;;0.60;;
5981;SDS011;3018;48.730;9.336;2023-09-19T01:57:14;0.55;;;0.50;;
5981;SDS011;3018;48.730;9.336;2023-09-19T01:59:43;0.60;;;0.60;;
5981;SDS011;3018;48.730;9.336;2023-09-19T02:02:12;1.10;;;0.60;;
5981;SDS011;3018;48.730;9.336;2023-09-19T02:04:39;0.45;;;0.40;;
5981;SDS011;3018;48.730;9.336;2023-09-19T02:07:06;1.50;;;0.65;;
5981;SDS011;3018;48.730;9.336;2023-09-19T02:09:33;1.45;;;0.50;;
5981;SDS011;3018;48.730;9.336;2023-09-19T02:12:00;0.60;;;0.60;;
5981;SDS011;3018;48.730;9.336;2023-09-19T02:14:26;1.23;;;0.50;;
5981;SDS011;3018;48.730;9.336;2023-09-19T02:16:54;1.58;;;0.50;;
5981;SDS011;3018;48.730;9.336;2023-09-19T02:19:22;0.68;;;0.57;;
5981;SDS011;3018;48.730;9.336;2023-09-19T02:21:49;0.60;;;0.50;;
5981;SDS011;3018;48.730;9.336;2023-09-19T02:24:14;0.70;;;0.57;;
5981;SDS011;3018;48.730;9.336;2023-09-19T02:26:41;0.60;;;0.60;;
5981;SDS011;3018;48.730;9.336;2023-09-19T02:29:07;0.60;;;0.60;;
5981;SDS011;3018;48.730;9.336;2023-09-19T02:31:37;0.75;;;0.40;;
5981;SDS011;3018;48.730;9.336;2023-09-19T02:34:04;0.50;;;0.50;;
5981;SDS011;3018;48.730;9.336;2023-09-19T02:36:32;1.75;;;0.60;;
5981;SDS011;3018;48.730;9.336;2023-09-19T02:38:59;0.65;;;0.50;;
5981;SDS011;3018;48.730;9.336;2023-09-19T02:41:25;0.70;;;0.70;;
5981;SDS011;3018;48.730;9.336;2023-09-19T02:43:54;2.53;;;0.63;;
5981;SDS011;3018;48.730;9.336;2023-09-19T02:46:20;3.15;;;0.60;;
5981;SDS011;3018;48.730;9.336;2023-09-19T02:48:47;0.52;;;0.52;;
5981;SDS011;3018;48.730;9.336;2023-09-19T02:51:13;0.63;;;0.63;;
5981;SDS011;3018;48.730;9.336;2023-09-19T02:53:41;1.88;;;0.55;;
5981;SDS011;3018;48.730;9.336;2023-09-19T02:56:07;3.08;;;0.70;;
5981;SDS011;3018;48.730;9.336;2023-09-19T02:58:34;1.67;;;0.70;;
5981;SDS011;3018;48.730;9.336;2023-09-19T03:01:07;0.60;;;0.60;;
5981;SDS011;3018;48.730;9.336;2023-09-19T03:03:33;0.55;;;0.55;;
5981;SDS011;3018;48.730;9.336;2023-09-19T03:06:00;0.93;;;0.93;;
5981;SDS011;3018;48.730;9.336;2023-09-19T03:08:29;0.55;;;0.55;;
5981;SDS011;3018;48.730;9.336;2023-09-19T03:10:56;0.77;;;0.75;;
5981;SDS011;3018;48.730;9.336;2023-09-19T03:13:23;0.70;;;0.63;;
5981;SDS011;3018;48.730;9.336;2023-09-19T03:15:49;1.52;;;0.82;;
5981;SDS011;3018;48.730;9.336;2023-09-19T03:18:15;2.45;;;0.75;;
5981;SDS011;3018;48.730;9.336;2023-09-19T03:20:41;0.70;;;0.70;;
5981;SDS011;3018;48.730;9.336;2023-09-19T03:23:08;0.93;;;0.73;;
5981;SDS011;3018;48.730;9.336;2023-09-19T03:25:35;1.08;;;0.85;;
5981;SDS011;3018;48.730;9.336;2023-09-19T03:28:03;1.58;;;1.20;;
5981;SDS011;3018;48.730;9.336;2023-09-19T03:30:30;0.77;;;0.77;;
5981;SDS011;3018;48.730;9.336;2023-09-19T03:32:58;0.73;;;0.70;;
5981;SDS011;3018;48.730;9.336;2023-09-19T03:35:25;1.00;;;0.60;;
5981;SDS011;3018;48.730;9.336;2023-09-19T03:37:51;2.33;;;0.80;;
5981;SDS011;3018;48.730;9.336;2023-09-19T03:40:18;0.98;;;0.60;;
5981;SDS011;3018;48.730;9.336;2023-09-19T03:42:46;1.17;;;0.70;;
5981;SDS011;3018;48.730;9.336;2023-09-19T03:45:14;1.30;;;0.52;;
5981;SDS011;3018;48.730;9.336;2023-09-19T03:47:41;0.85;;;0.80;;
5981;SDS011;3018;48.730;9.336;2023-09-19T03:50:07;1.00;;;1.00;;
5981;SDS011;3018;48.730;9.336;2023-09-19T03:52:36;0.70;;;0.70;;
5981;SDS011;3018;48.730;9.336;2023-09-19T03:55:02;0.70;;;0.70;;
5981;SDS011;3018;48.730;9.336;2023-09-19T03:57:29;0.95;;;0.70;;
5981;SDS011;3018;48.730;9.336;2023-09-19T03:59:55;1.45;;;0.70;;
5981;SDS011;3018;48.730;9.336;2023-09-19T04:02:23;0.88;;;0.68;;
5981;SDS011;3018;48.730;9.336;2023-09-19T04:04:50;1.48;;;0.70;;
5981;SDS011;3018;48.730;9.336;2023-09-19T04:07:16;0.75;;;0.70;;
5981;SDS011;3018;48.730;9.336;2023-09-19T04:09:44;0.80;;;0.80;;
5981;SDS011;3018;48.730;9.336;2023-09-19T04:12:10;2.67;;;1.00;;
5981;SDS011;3018;48.730;9.336;2023-09-19T04:14:37;2.25;;;0.73;;
5981;SDS011;3018;48.730;9.336;2023-09-19T04:17:03;2.05;;;0.80;;
5981;SDS011;3018;48.730;9.336;2023-09-19T04:19:31;1.75;;;0.55;;
5981;SDS011;3018;48.730;9.336;2023-09-19T04:21:57;0.93;;;0.93;;
5981;SDS011;3018;48.730;9.336;2023-09-19T04:24:24;2.05;;;0.98;;
5981;SDS011;3018;48.730;9.336;2023-09-19T04:26:50;2.20;;;1.00;;
5981;SDS011;3018;48.730;9.336;2023-09-19T04:29:17;0.95;;;0.90;;
5981;SDS011;3018;48.730;9.336;2023-09-19T04:31:44;1.95;;;0.98;;
5981;SDS011;3018;48.730;9.336;2023-09-19T04:34:11;1.85;;;0.80;;
5981;SDS011;3018;48.730;9.336;2023-09-19T04:36:41;2.95;;;1.00;;
5981;SDS011;3018;48.730;9.336;2023-09-19T04:39:08;2.60;;;0.80;;
5981;SDS011;3018;48.730;9.336;2023-09-19T04:41:36;0.73;;;0.73;;
5981;SDS011;3018;48.730;9.336;2023-09-19T04:44:04;1.17;;;1.00;;
5981;SDS011;3018;48.730;9.336;2023-09-19T04:46:30;1.50;;;0.93;;
5981;SDS011;3018;48.730;9.336;2023-09-19T04:48:56;0.90;;;0.90;;
5981;SDS011;3018;48.730;9.336;2023-09-19T04:51:23;0.80;;;0.80;;
5981;SDS011;3018;48.730;9.336;2023-09-19T04:53:51;1.85;;;0.82;;
5981;SDS011;3018;48.730;9.336;2023-09-19T04:56:18;1.67;;;0.75;;
5981;SDS011;3018;48.730;9.336;2023-09-19T04:58:46;4.15;;;0.80;;
5981;SDS011;3018;48.730;9.336;2023-09-19T05:01:12;0.77;;;0.77;;
5981;SDS011;3018;48.730;9.336;2023-09-19T05:03:40;1.00;;;0.90;;
5981;SDS011;3018;48.730;9.336;2023-09-19T05:06:07;1.85;;;0.88;;
5981;SDS011;3018;48.730;9.336;2023-09-19T05:08:33;1.08;;;0.80;;
5981;SDS011;3018;48.730;9.336;2023-09-19T05:11:02;0.73;;;0.73;;
5981;SDS011;3018;48.730;9.336;2023-09-19T05:13:29;1.00;;;0.95;;
5981;SDS011;3018;48.730;9.336;2023-09-19T05:15:59;0.82;;;0.82;;
5981;SDS011;3018;48.730;9.336;2023-09-19T05:18:26;0.80;;;0.80;;
5981;SDS011;3018;48.730;9.336;2023-09-19T05:20:53;0.75;;;0.73;;
5981;SDS011;3018;48.730;9.336;2023-09-19T05:23:19;1.05;;;1.00;;
5981;SDS011;3018;48.730;9.336;2023-09-19T05:25:46;1.70;;;1.20;;
5981;SDS011;3018;48.730;9.336;2023-09-19T05:28:13;1.20;;;1.10;;
5981;SDS011;3018;48.730;9.336;2023-09-19T05:30:40;3.13;;;1.00;;
5981;SDS011;3018;48.730;9.336;2023-09-19T05:33:08;1.10;;;1.10;;
5981;SDS011;3018;48.730;9.336;2023-09-19T05:35:34;2.28;;;1.00;;
5981;SDS011;3018;48.730;9.336;2023-09-19T05:38:02;1.13;;;1.13;;
5981;SDS011;3018;48.730;9.336;2023-09-19T05:40:30;2.03;;;0.95;;
5981;SDS011;3018;48.730;9.336;2023-09-19T05:42:56;3.05;;;1.10;;
5981;SDS011;3018;48.730;9.336;2023-09-19T05:45:24;2.10;;;0.90;;
5981;SDS011;3018;48.730;9.336;2023-09-19T05:47:51;1.00;;;0.90;;
5981;SDS011;3018;48.730;9.336;2023-09-19T05:50:20;0.75;;;0.75;;
5981;SDS011;3018;48.730;9.336;2023-09-19T05:52:51;0.80;;;0.80;;
5981;SDS011;3018;48.730;9.336;2023-09-19T05:55:17;1.38;;;1.00;;
5981;SDS011;3018;48.730;9.336;2023-09-19T05:57:43;0.88;;;0.88;;
5981;SDS011;3018;48.730;9.336;2023-09-19T06:00:15;2.30;;;0.90;;
5981;SDS011;3018;48.730;9.336;2023-09-19T06:02:45;1.27;;;1.17;;
5981;SDS011;3018;48.730;9.336;2023-09-19T06:05:11;3.30;;;1.02;;
5981;SDS011;3018;48.730;9.336;2023-09-19T06:07:37;2.13;;;1.27;;
5981;SDS011;3018;48.730;9.336;2023-09-19T06:10:04;1.00;;;1.00;;
5981;SDS011;3018;48.730;9.336;2023-09-19T06:12:32;1.48;;;1.30;;
5981;SDS011;3018;48.730;9.336;2023-09-19T06:15:02;1.10;;;1.10;;
5981;SDS011;3018;48.730;9.336;2023-09-19T06:17:28;2.42;;;1.20;;
5981;SDS011;3018;48.730;9.336;2023-09-19T06:19:57;1.75;;;1.23;;
5981;SDS011;3018;48.730;9.336;2023-09-19T06:22:24;2.60;;;1.00;;
5981;SDS011;3018;48.730;9.336;2023-09-19T06:24:50;2.90;;;1.20;;
5981;SDS011;3018;48.730;9.336;2023-09-19T06:27:16;1.95;;;1.10;;
5981;SDS011;3018;48.730;9.336;2023-09-19T06:29:43;1.65;;;1.10;;
5981;SDS011;3018;48.730;9.336;2023-09-19T06:32:09;1.48;;;1.20;;
5981;SDS011;3018;48.730;9.336;2023-09-19T06:34:36;1.63;;;1.15;;
5981;SDS011;3018;48.730;9.336;2023-09-19T06:37:04;2.78;;;1.00;;
5981;SDS011;3018;48.730;9.336;2023-09-19T06:39:31;3.33;;;1.35;;
5981;SDS011;3018;48.730;9.336;2023-09-19T06:41:57;1.30;;;1.17;;
5981;SDS011;3018;48.730;9.336;2023-09-19T06:44:26;1.30;;;1.20;;
5981;SDS011;3018;48.730;9.336;2023-09-19T06:46:54;1.35;;;0.90;;
5981;SDS011;3018;48.730;9.336;2023-09-19T06:49:21;1.42;;;0.90;;
5981;SDS011;3018;48.730;9.336;2023-09-19T06:51:47;1.95;;;1.05;;
5981;SDS011;3018;48.730;9.336;2023-09-19T06:54:15;2.67;;;1.23;;
5981;SDS011;3018;48.730;9.336;2023-09-19T06:56:43;5.93;;;1.40;;
5981;SDS011;3018;48.730;9.336;2023-09-19T06:59:09;1.25;;;1.13;;
5981;SDS011;3018;48.730;9.336;2023-09-19T07:01:39;1.85;;;1.30;;
5981;SDS011;3018;48.730;9.336;2023-09-19T07:04:06;1.70;;;1.48;;
5981;SDS011;3018;48.730;9.336;2023-09-19T07:06:32;3.50;;;1.60;;
5981;SDS011;3018;48.730;9.336;2023-09-19T07:08:59;2.47;;;1.55;;
5981;SDS011;3018;48.730;9.336;2023-09-19T07:11:27;1.17;;;1.08;;
5981;SDS011;3018;48.730;9.336;2023-09-19T07:13:55;1.33;;;1.23;;
5981;SDS011;3018;48.730;9.336;2023-09-19T07:16:22;1.67;;;1.25;;
5981;SDS011;3018;48.730;9.336;2023-09-19T07:18:54;2.05;;;1.00;;
5981;SDS011;3018;48.730;9.336;2023-09-19T07:21:21;1.23;;;1.15;;
5981;SDS011;3018;48.730;9.336;2023-09-19T07:23:47;1.77;;;1.20;;
5981;SDS011;3018;48.730;9.336;2023-09-19T07:26:14;1.20;;;1.02;;
5981;SDS011;3018;48.730;9.336;2023-09-19T07:28:42;1.35;;;0.80;;
5981;SDS011;3018;48.730;9.336;2023-09-19T07:31:08;2.85;;;1.10;;
5981;SDS011;3018;48.730;9.336;2023-09-19T07:33:35;2.60;;;0.90;;
5981;SDS011;3018;48.730;9.336;2023-09-19T07:36:01;1.92;;;1.10;;
5981;SDS011;3018;48.730;9.336;2023-09-19T07:38:28;2.10;;;1.02;;
5981;SDS011;3018;48.730;9.336;2023-09-19T07:40:59;1.45;;;0.93;;
5981;SDS011;3018;48.730;9.336;2023-09-19T07:43:24;1.67;;;1.02;;
5981;SDS011;3018;48.730;9.336;2023-09-19T07:45:53;2.05;;;1.13;;
5981;SDS011;3018;48.730;9.336;2023-09-19T07:48:19;1.40;;;1.30;;
5981;SDS011;3018;48.730;9.336;2023-09-19T07:50:45;1.30;;;1.00;;
5981;SDS011;3018;48.730;9.336;2023-09-19T07:53:12;1.42;;;1.00;;
5981;SDS011;3018;48.730;9.336;2023-09-19T07:55:38;1.42;;;1.00;;
5981;SDS011;3018;48.730;9.336;2023-09-19T07:58:06;1.20;;;0.95;;
5981;SDS011;3018;48.730;9.336;2023-09-19T08:00:32;0.82;;;0.82;;
5981;SDS011;3018;48.730;9.336;2023-09-19T08:03:01;1.02;;;1.00;;
5981;SDS011;3018;48.730;9.336;2023-09-19T08:05:29;4.75;;;0.93;;
5981;SDS011;3018;48.730;9.336;2023-09-19T08:07:55;0.88;;;0.88;;
5981;SDS011;3018;48.730;9.336;2023-09-19T08:10:23;1.92;;;1.00;;
5981;SDS011;3018;48.730;9.336;2023-09-19T08:12:52;1.15;;;0.80;;
5981;SDS011;3018;48.730;9.336;2023-09-19T08:15:23;1.10;;;1.00;;
5981;SDS011;3018;48.730;9.336;2023-09-19T08:17:49;1.65;;;0.90;;
5981;SDS011;3018;48.730;9.336;2023-09-19T08:20:17;0.80;;;0.80;;
5981;SDS011;3018;48.730;9.336;2023-09-19T08:22:44;2.03;;;0.88;;
5981;SDS011;3018;48.730;9.336;2023-09-19T08:25:12;0.80;;;0.80;;
5981;SDS011;3018;48.730;9.336;2023-09-19T08:27:39;0.90;;;0.80;;
5981;SDS011;3018;48.730;9.336;2023-09-19T08:30:05;1.33;;;0.90;;
5981;SDS011;3018;48.730;9.336;2023-09-19T08:32:32;2.13;;;0.90;;
5981;SDS011;3018;48.730;9.336;2023-09-19T08:34:58;2.05;;;0.90;;
5981;SDS011;3018;48.730;9.336;2023-09-19T08:37:26;0.82;;;0.82;;
5981;SDS011;3018;48.730;9.336;2023-09-19T08:39:52;1.92;;;1.00;;
5981;SDS011;3018;48.730;9.336;2023-09-19T08:42:19;2.40;;;1.20;;
5981;SDS011;3018;48.730;9.336;2023-09-19T08:44:46;1.77;;;0.90;;
5981;SDS011;3018;48.730;9.336;2023-09-19T08:47:14;1.60;;;1.15;;
5981;SDS011;3018;48.730;9.336;2023-09-19T08:49:53;1.88;;;0.98;;
5981;SDS011;3018;48.730;9.336;2023-09-19T08:52:19;2.75;;;0.90;;
5981;SDS011;3018;48.730;9.336;2023-09-19T08:54:50;3.83;;;0.70;;
5981;SDS011;3018;48.730;9.336;2023-09-19T08:57:17;1.25;;;0.95;;
5981;SDS011;3018;48.730;9.336;2023-09-19T08:59:47;0.95;;;0.90;;
5981;SDS011;3018;48.730;9.336;2023-09-19T09:02:14;1.95;;;1.05;;
5981;SDS011;3018;48.730;9.336;2023-09-19T09:04:42;1.65;;;0.70;;
5981;SDS011;3018;48.730;9.336;2023-09-19T09:07:10;1.05;;;0.80;;
5981;SDS011;3018;48.730;9.336;2023-09-19T09:09:37;1.75;;;0.90;;
5981;SDS011;3018;48.730;9.336;2023-09-19T09:12:09;1.63;;;0.90;;
5981;SDS011;3018;48.730;9.336;2023-09-19T09:14:37;1.55;;;0.90;;
5981;SDS011;3018;48.730;9.336;2023-09-19T09:17:03;1.48;;;0.90;;
5981;SDS011;3018;48.730;9.336;2023-09-19T09:19:30;3.15;;;1.00;;
5981;SDS011;3018;48.730;9.336;2023-09-19T09:22:05;3.03;;;0.80;;
5981;SDS011;3018;48.730;9.336;2023-09-19T09:24:31;2.35;;;1.10;;
5981;SDS011;3018;48.730;9.336;2023-09-19T09:26:59;1.73;;;0.88;;
5981;SDS011;3018;48.730;9.336;2023-09-19T09:29:44;0.90;;;0.90;;
5981;SDS011;3018;48.730;9.336;2023-09-19T09:32:21;4.97;;;1.00;;
5981;SDS011;3018;48.730;9.336;2023-09-19T09:34:48;0.63;;;0.63;;
5981;SDS011;3018;48.730;9.336;2023-09-19T09:37:15;0.82;;;0.82;;
5981;SDS011;3018;48.730;9.336;2023-09-19T09:39:48;2.20;;;0.80;;
5981;SDS011;3018;48.730;9.336;2023-09-19T09:42:19;0.60;;;0.60;;
5981;SDS011;3018;48.730;9.336;2023-09-19T09:45:06;3.70;;;0.88;;
5981;SDS011;3018;48.730;9.336;2023-09-19T09:47:41;0.90;;;0.90;;
5981;SDS011;3018;48.730;9.336;2023-09-19T09:50:06;3.25;;;0.90;;
5981;SDS011;3018;48.730;9.336;2023-09-19T09:52:45;2.72;;;0.85;;
5981;SDS011;3018;48.730;9.336;2023-09-19T09:55:12;0.75;;;0.75;;
5981;SDS011;3018;48.730;9.336;2023-09-19T09:57:38;1.20;;;1.10;;
5981;SDS011;3018;48.730;9.336;2023-09-19T10:00:09;2.15;;;0.85;;
5981;SDS011;3018;48.730;9.336;2023-09-19T10:02:45;1.83;;;1.00;;
5981;SDS011;3018;48.730;9.336;2023-09-19T10:05:12;1.30;;;1.05;;
5981;SDS011;3018;48.730;9.336;2023-09-19T10:07:46;3.78;;;1.00;;
5981;SDS011;3018;48.730;9.336;2023-09-19T10:10:14;0.80;;;0.80;;
5981;SDS011;3018;48.730;9.336;2023-09-19T10:12:46;1.15;;;0.85;;
5981;SDS011;3018;48.730;9.336;2023-09-19T10:15:15;0.82;;;0.82;;
5981;SDS011;3018;48.730;9.336;2023-09-19T10:17:42;1.67;;;1.10;;
5981;SDS011;3018;48.730;9.336;2023-09-19T10:20:10;0.85;;;0.85;;
5981;SDS011;3018;48.730;9.336;2023-09-19T10:22:47;2.83;;;1.02;;
5981;SDS011;3018;48.730;9.336;2023-09-19T10:25:22;1.63;;;0.85;;
5981;SDS011;3018;48.730;9.336;2023-09-19T10:27:50;2.35;;;1.00;;
5981;SDS011;3018;48.730;9.336;2023-09-19T10:30:20;1.60;;;0.88;;
5981;SDS011;3018;48.730;9.336;2023-09-19T10:32:46;1.05;;;1.00;;
5981;SDS011;3018;48.730;9.336;2023-09-19T10:35:14;0.80;;;0.75;;
5981;SDS011;3018;48.730;9.336;2023-09-19T10:37:40;1.92;;;1.05;;
5981;SDS011;3018;48.730;9.336;2023-09-19T10:40:09;1.65;;;1.10;;
5981;SDS011;3018;48.730;9.336;2023-09-19T10:42:37;1.13;;;1.02;;
5981;SDS011;3018;48.730;9.336;2023-09-19T10:45:04;0.90;;;0.90;;
5981;SDS011;3018;48.730;9.336;2023-09-19T10:47:39;0.75;;;0.75;;
5981;SDS011;3018;48.730;9.336;2023-09-19T10:50:05;1.33;;;0.93;;
5981;SDS011;3018;48.730;9.336;2023-09-19T10:52:38;1.20;;;1.00;;
5981;SDS011;3018;48.730;9.336;2023-09-19T10:55:07;3.33;;;1.00;;
5981;SDS011;3018;48.730;9.336;2023-09-19T10:57:35;2.20;;;1.00;;
5981;SDS011;3018;48.730;9.336;2023-09-19T11:00:02;1.58;;;1.10;;
5981;SDS011;3018;48.730;9.336;2023-09-19T11:05:31;4.03;;;1.08;;
5981;SDS011;3018;48.730;9.336;2023-09-19T11:07:57;2.60;;;1.00;;
5981;SDS011;3018;48.730;9.336;2023-09-19T11:13:23;1.15;;;1.00;;
5981;SDS011;3018;48.730;9.336;2023-09-19T11:18:53;2.25;;;1.00;;
5981;SDS011;3018;48.730;9.336;2023-09-19T11:21:43;1.48;;;0.90;;
5981;SDS011;3018;48.730;9.336;2023-09-19T11:24:29;1.30;;;1.20;;
5981;SDS011;3018;48.730;9.336;2023-09-19T11:29:38;0.80;;;0.80;;
5981;SDS011;3018;48.730;9.336;2023-09-19T11:32:05;1.10;;;1.08;;
5981;SDS011;3018;48.730;9.336;2023-09-19T11:34:48;1.00;;;0.85;;
5981;SDS011;3018;48.730;9.336;2023-09-19T11:40:05;0.60;;;0.60;;
5981;SDS011;3018;48.730;9.336;2023-09-19T11:42:44;1.25;;;0.82;;
5981;SDS011;3018;48.730;9.336;2023-09-19T11:47:55;0.77;;;0.77;;
5981;SDS011;3018;48.730;9.336;2023-09-19T11:50:24;0.70;;;0.70;;
5981;SDS011;3018;48.730;9.336;2023-09-19T11:52:51;1.05;;;0.80;;
5981;SDS011;3018;48.730;9.336;2023-09-19T11:55:18;0.93;;;0.80;;
5981;SDS011;3018;48.730;9.336;2023-09-19T11:57:46;1.63;;;1.08;;
5981;SDS011;3018;48.730;9.336;2023-09-19T12:00:16;0.80;;;0.80;;
5981;SDS011;3018;48.730;9.336;2023-09-19T12:02:43;1.60;;;0.80;;
5981;SDS011;3018;48.730;9.336;2023-09-19T12:05:11;1.75;;;0.70;;
5981;SDS011;3018;48.730;9.336;2023-09-19T12:07:45;3.80;;;0.80;;
5981;SDS011;3018;48.730;9.336;2023-09-19T12:10:12;2.88;;;0.77;;
5981;SDS011;3018;48.730;9.336;2023-09-19T12:12:45;1.33;;;0.95;;
5981;SDS011;3018;48.730;9.336;2023-09-19T12:15:12;0.75;;;0.68;;
5981;SDS011;3018;48.730;9.336;2023-09-19T12:17:39;2.88;;;1.10;;
5981;SDS011;3018;48.730;9.336;2023-09-19T12:20:07;2.67;;;1.10;;
5981;SDS011;3018;48.730;9.336;2023-09-19T12:22:40;1.02;;;0.90;;
5981;SDS011;3018;48.730;9.336;2023-09-19T12:25:09;1.65;;;0.80;;
5981;SDS011;3018;48.730;9.336;2023-09-19T12:27:41;1.88;;;0.90;;
5981;SDS011;3018;48.730;9.336;2023-09-19T12:30:08;0.68;;;0.68;;
5981;SDS011;3018;48.730;9.336;2023-09-19T12:32:35;1.65;;;0.90;;
5981;SDS011;3018;48.730;9.336;2023-09-19T12:35:02;0.73;;;0.70;;
5981;SDS011;3018;48.730;9.336;2023-09-19T12:37:32;0.93;;;0.80;;
5981;SDS011;3018;48.730;9.336;2023-09-19T12:40:04;0.70;;;0.70;;
5981;SDS011;3018;48.730;9.336;2023-09-19T12:42:41;1.15;;;0.60;;
5981;SDS011;3018;48.730;9.336;2023-09-19T12:45:08;1.20;;;0.80;;
5981;SDS011;3018;48.730;9.336;2023-09-19T12:47:35;1.15;;;0.90;;
5981;SDS011;3018;48.730;9.336;2023-09-19T12:50:08;1.05;;;0.60;;
5981;SDS011;3018;48.730;9.336;2023-09-19T12:52:39;1.92;;;0.90;;
5981;SDS011;3018;48.730;9.336;2023-09-19T12:55:05;0.55;;;0.55;;
5981;SDS011;3018;48.730;9.336;2023-09-19T12:57:32;1.15;;;0.70;;
5981;SDS011;3018;48.730;9.336;2023-09-19T13:00:01;0.85;;;0.70;;
5981;SDS011;3018;48.730;9.336;2023-09-19T13:02:27;3.28;;;0.90;;
5981;SDS011;3018;48.730;9.336;2023-09-19T13:04:54;2.42;;;0.75;;
5981;SDS011;3018;48.730;9.336;2023-09-19T13:07:40;1.42;;;0.73;;
5981;SDS011;3018;48.730;9.336;2023-09-19T13:10:08;0.95;;;0.85;;
5981;SDS011;3018;48.730;9.336;2023-09-19T13:12:35;3.47;;;0.80;;
5981;SDS011;3018;48.730;9.336;2023-09-19T13:15:10;0.75;;;0.70;;
5981;SDS011;3018;48.730;9.336;2023-09-19T13:17:42;1.50;;;0.68;;
5981;SDS011;3018;48.730;9.336;2023-09-19T13:20:19;2.03;;;0.80;;
5981;SDS011;3018;48.730;9.336;2023-09-19T13:22:49;0.80;;;0.73;;
5981;SDS011;3018;48.730;9.336;2023-09-19T13:25:19;1.05;;;1.00;;
5981;SDS011;3018;48.730;9.336;2023-09-19T13:27:46;1.17;;;0.70;;
5981;SDS011;3018;48.730;9.336;2023-09-19T13:30:14;2.85;;;0.70;;
5981;SDS011;3018;48.730;9.336;2023-09-19T13:32:41;1.08;;;1.00;;
5981;SDS011;3018;48.730;9.336;2023-09-19T13:35:09;0.88;;;0.80;;
5981;SDS011;3018;48.730;9.336;2023-09-19T13:37:35;2.58;;;0.75;;
5981;SDS011;3018;48.730;9.336;2023-09-19T13:40:06;2.63;;;0.60;;
5981;SDS011;3018;48.730;9.336;2023-09-19T13:42:32;1.15;;;0.93;;
5981;SDS011;3018;48.730;9.336;2023-09-19T13:44:59;0.98;;;0.77;;
5981;SDS011;3018;48.730;9.336;2023-09-19T13:47:27;2.67;;;1.15;;
5981;SDS011;3018;48.730;9.336;2023-09-19T13:49:53;1.77;;;0.80;;
5981;SDS011;3018;48.730;9.336;2023-09-19T13:52:20;0.88;;;0.88;;
5981;SDS011;3018;48.730;9.336;2023-09-19T13:54:46;1.08;;;0.68;;
5981;SDS011;3018;48.730;9.336;2023-09-19T13:57:13;1.30;;;0.82;;
5981;SDS011;3018;48.730;9.336;2023-09-19T13:59:39;1.48;;;0.80;;
5981;SDS011;3018;48.730;9.336;2023-09-19T14:02:05;2.33;;;0.80;;
5981;SDS011;3018;48.730;9.336;2023-09-19T14:04:33;2.10;;;0.65;;
5981;SDS011;3018;48.730;9.336;2023-09-19T14:07:00;0.98;;;0.90;;
5981;SDS011;3018;48.730;9.336;2023-09-19T14:09:26;0.68;;;0.57;;
5981;SDS011;3018;48.730;9.336;2023-09-19T14:11:53;1.00;;;0.80;;
5981;SDS011;3018;48.730;9.336;2023-09-19T14:14:19;1.38;;;1.02;;
5981;SDS011;3018;48.730;9.336;2023-09-19T14:16:46;0.90;;;0.90;;
5981;SDS011;3018;48.730;9.336;2023-09-19T14:19:12;0.80;;;0.80;;
5981;SDS011;3018;48.730;9.336;2023-09-19T14:21:40;1.52;;;1.08;;
5981;SDS011;3018;48.730;9.336;2023-09-19T14:24:06;1.10;;;0.90;;
5981;SDS011;3018;48.730;9.336;2023-09-19T14:26:34;0.80;;;0.80;;
5981;SDS011;3018;48.730;9.336;2023-09-19T14:29:00;1.02;;;0.93;;
5981;SDS011;3018;48.730;9.336;2023-09-19T14:31:27;0.70;;;0.65;;
5981;SDS011;3018;48.730;9.336;2023-09-19T14:33:53;0.70;;;0.70;;
5981;SDS011;3018;48.730;9.336;2023-09-19T14:36:19;2.30;;;0.80;;
5981;SDS011;3018;48.730;9.336;2023-09-19T14:38:48;1.10;;;0.80;;
5981;SDS011;3018;48.730;9.336;2023-09-19T14:41:18;0.55;;;0.55;;
5981;SDS011;3018;48.730;9.336;2023-09-19T14:43:45;1.13;;;0.80;;
5981;SDS011;3018;48.730;9.336;2023-09-19T14:46:11;1.27;;;0.70;;
5981;SDS011;3018;48.730;9.336;2023-09-19T14:48:39;2.67;;;0.75;;
5981;SDS011;3018;48.730;9.336;2023-09-19T14:51:06;1.38;;;0.85;;
5981;SDS011;3018;48.730;9.336;2023-09-19T14:53:33;0.98;;;0.82;;
5981;SDS011;3018;48.730;9.336;2023-09-19T14:56:01;2.15;;;0.77;;
5981;SDS011;3018;48.730;9.336;2023-09-19T14:58:28;1.02;;;0.93;;
5981;SDS011;3018;48.730;9.336;2023-09-19T15:01:01;1.27;;;0.70;;
5981;SDS011;3018;48.730;9.336;2023-09-19T15:03:27;5.10;;;0.90;;
5981;SDS011;3018;48.730;9.336;2023-09-19T15:05:58;0.70;;;0.70;;
5981;SDS011;3018;48.730;9.336;2023-09-19T15:08:25;0.70;;;0.70;;
5981;SDS011;3018;48.730;9.336;2023-09-19T15:10:51;2.03;;;0.88;;
5981;SDS011;3018;48.730;9.336;2023-09-19T15:13:19;0.80;;;0.80;;
5981;SDS011;3018;48.730;9.336;2023-09-19T15:15:46;1.75;;;0.73;;
5981;SDS011;3018;48.730;9.336;2023-09-19T15:18:13;2.95;;;0.80;;
5981;SDS011;3018;48.730;9.336;2023-09-19T15:20:42;3.92;;;0.77;;
5981;SDS011;3018;48.730;9.336;2023-09-19T15:23:08;0.80;;;0.77;;
5981;SDS011;3018;48.730;9.336;2023-09-19T15:25:35;1.00;;;0.90;;
5981;SDS011;3018;48.730;9.336;2023-09-19T15:28:01;1.27;;;0.70;;
5981;SDS011;3018;48.730;9.336;2023-09-19T15:30:34;0.52;;;0.52;;
5981;SDS011;3018;48.730;9.336;2023-09-19T15:33:02;0.80;;;0.80;;
5981;SDS011;3018;48.730;9.336;2023-09-19T15:35:28;1.02;;;0.90;;
5981;SDS011;3018;48.730;9.336;2023-09-19T15:37:54;0.70;;;0.70;;
5981;SDS011;3018;48.730;9.336;2023-09-19T15:40:23;0.80;;;0.80;;
5981;SDS011;3018;48.730;9.336;2023-09-19T15:42:49;0.70;;;0.68;;